Etown, Pennsylvania
Current Conditions -  °F | °C
As of 2:56 PM on Sunday 25 Jan 2015 (Local Time) from KMDT Reporting Station
Overcast Overcast  
Wind Chill: 32°   Ceiling: 9500
Heat Index: 38°   Visibility: 8mi
Dew Point: 31°   Wind: 8mph
Humidity: 76%   Direction: 310°NW
Pressure: 29.8"   Gusts: NA
Location:  40.1674°N, 76.6045°W
Report Text: KMDT 251956Z 31007KT 8SM BKN095 BKN110 OVC150 03/M01 A2980 RMK AO2 SLP095 T00331006
Loading
Personal Weather Stations






























Interactive Weather Map New forecast layout! Learn more

10-Day Weather Forecast

Advertisements
Track Severe Weather on mobile